Time;durP1;ratioP1;P1;durP2;ratioP2;P2;SDS_P1;SDS_P2;PMS_P1;PMS_P2;Temp;Humidity;BMP_temperature;BMP_pressure;BME280_temperature;BME280_humidity;BME280_pressure;Samples;Min_cycle;Max_cycle;Signal;HPM_P1;HPM_P2
2022/01/06 00:02:15;;;;;;;15.18;7.20;;;;;;;;;;5031823;28;20087;-84
2022/01/06 00:04:42;;;;;;;14.13;6.57;;;;;;;;;;5013973;28;20033;-85
2022/01/06 00:07:07;;;;;;;15.70;6.78;;;;;;;;;;5013913;28;20034;-85
2022/01/06 00:09:33;;;;;;;19.48;8.93;;;;;;;;;;5031376;28;20071;-84
2022/01/06 00:11:59;;;;;;;23.50;9.02;;;;;;;;;;5031867;28;20049;-85
2022/01/06 00:14:40;;;;;;;19.55;9.15;;;;;;;;;;5013799;28;20036;-83
2022/01/06 00:18:14;;;;;;;23.60;9.15;;;;;;;;;;5013385;28;20029;-85
2022/01/06 00:23:20;;;;;;;34.00;13.88;;;;;;;;;;5031083;28;20115;-85
2022/01/06 00:25:46;;;;;;;20.52;10.48;;;;;;;;;;5017041;28;20045;-84
2022/01/06 00:28:15;;;;;;;30.88;13.88;;;;;;;;;;5017681;28;20102;-84
2022/01/06 00:30:40;;;;;;;22.48;9.60;;;;;;;;;;5031415;28;20029;-84
2022/01/06 00:33:07;;;;;;;14.68;8.25;;;;;;;;;;5013684;28;20113;-84
2022/01/06 00:35:32;;;;;;;17.08;9.02;;;;;;;;;;5029346;28;20503;-84
2022/01/06 00:37:59;;;;;;;11.07;7.03;;;;;;;;;;5022934;28;20116;-84
2022/01/06 00:40:24;;;;;;;13.02;7.40;;;;;;;;;;5022434;28;20041;-84
2022/01/06 00:42:50;;;;;;;27.50;12.32;;;;;;;;;;5018865;28;20029;-85
2022/01/06 00:45:15;;;;;;;23.60;10.75;;;;;;;;;;5031120;28;20025;-86
2022/01/06 00:47:41;;;;;;;16.52;8.32;;;;;;;;;;5031564;28;20027;-84
2022/01/06 00:50:07;;;;;;;21.48;9.60;;;;;;;;;;5031045;28;20496;-83
2022/01/06 00:52:33;;;;;;;30.63;14.32;;;;;;;;;;5031431;28;20120;-83
2022/01/06 00:54:59;;;;;;;28.60;13.35;;;;;;;;;;5031461;28;20100;-84
2022/01/06 00:57:25;;;;;;;24.58;11.55;;;;;;;;;;5013219;28;20033;-83
2022/01/06 00:59:50;;;;;;;18.67;9.63;;;;;;;;;;5032236;28;20035;-83
2022/01/06 01:02:16;;;;;;;15.60;8.50;;;;;;;;;;5035141;28;20036;-83
2022/01/06 01:04:41;;;;;;;23.50;13.93;;;;;;;;;;5017104;28;20041;-83
2022/01/06 01:07:07;;;;;;;22.65;10.40;;;;;;;;;;5034775;28;20029;-83
2022/01/06 01:09:33;;;;;;;13.32;8.52;;;;;;;;;;5034727;28;20029;-84
2022/01/06 01:12:03;;;;;;;21.38;11.60;;;;;;;;;;5017271;28;20036;-83
2022/01/06 01:14:42;;;;;;;15.55;9.95;;;;;;;;;;5034889;28;20029;-83
2022/01/06 01:17:13;;;;;;;42.05;21.05;;;;;;;;;;5015942;28;20048;-83
2022/01/06 01:19:38;;;;;;;29.02;16.65;;;;;;;;;;5016941;28;20021;-83
2022/01/06 01:22:04;;;;;;;23.00;13.90;;;;;;;;;;5034380;28;20124;-83
2022/01/06 01:24:29;;;;;;;16.92;10.85;;;;;;;;;;5033900;28;20031;-83
2022/01/06 01:26:55;;;;;;;17.58;9.68;;;;;;;;;;5034319;28;20029;-83
2022/01/06 01:29:22;;;;;;;13.32;8.05;;;;;;;;;;5034165;28;20017;-84
2022/01/06 01:31:51;;;;;;;15.45;8.48;;;;;;;;;;5034225;28;20087;-85
2022/01/06 01:34:26;;;;;;;14.57;6.95;;;;;;;;;;5016121;28;20075;-85
2022/01/06 01:36:55;;;;;;;16.60;9.57;;;;;;;;;;5029926;28;20026;-84
2022/01/06 01:39:20;;;;;;;11.98;7.57;;;;;;;;;;5034012;28;20441;-83
2022/01/06 01:41:46;;;;;;;13.98;7.53;;;;;;;;;;5016395;28;20125;-85
2022/01/06 01:44:14;;;;;;;13.02;7.07;;;;;;;;;;5016603;28;20053;-84
2022/01/06 01:46:44;;;;;;;11.80;7.13;;;;;;;;;;5030305;28;20025;-84
2022/01/06 01:51:45;;;;;;;17.98;9.95;;;;;;;;;;5034019;28;20051;-84
2022/01/06 01:54:11;;;;;;;13.50;8.18;;;;;;;;;;5015116;28;20536;-87
2022/01/06 01:56:38;;;;;;;17.83;8.77;;;;;;;;;;5033938;28;20033;-85
2022/01/06 01:59:03;;;;;;;13.63;8.23;;;;;;;;;;5033599;28;20651;-84
2022/01/06 02:01:29;;;;;;;13.38;8.68;;;;;;;;;;5033924;28;20079;-85
2022/01/06 02:03:54;;;;;;;16.08;8.30;;;;;;;;;;5033855;28;20087;-85
2022/01/06 02:06:21;;;;;;;14.73;8.52;;;;;;;;;;5033607;28;20048;-84
2022/01/06 02:08:54;;;;;;;14.23;8.05;;;;;;;;;;5034408;28;20516;-85
2022/01/06 02:11:20;;;;;;;14.60;7.47;;;;;;;;;;5015644;28;20036;-83
2022/01/06 02:13:50;;;;;;;22.25;11.40;;;;;;;;;;5016531;28;20033;-84
2022/01/06 02:16:20;;;;;;;23.98;11.20;;;;;;;;;;5016256;28;20508;-85
2022/01/06 02:18:45;;;;;;;15.18;7.53;;;;;;;;;;5033886;28;20472;-85
2022/01/06 02:21:18;;;;;;;21.23;9.20;;;;;;;;;;5033681;28;20025;-84
2022/01/06 02:23:44;;;;;;;11.75;6.78;;;;;;;;;;5015811;28;20140;-84
2022/01/06 02:26:11;;;;;;;14.55;8.95;;;;;;;;;;5033437;28;20180;-86
2022/01/06 02:28:37;;;;;;;18.00;9.88;;;;;;;;;;5016067;28;20037;-86
2022/01/06 02:31:03;;;;;;;21.02;9.18;;;;;;;;;;5033436;28;20381;-84
2022/01/06 02:33:30;;;;;;;13.02;7.25;;;;;;;;;;5015935;28;20087;-85
2022/01/06 02:35:56;;;;;;;10.60;6.30;;;;;;;;;;5033368;28;20031;-85
2022/01/06 02:38:23;;;;;;;12.50;7.60;;;;;;;;;;5033356;28;20033;-83
2022/01/06 02:40:49;;;;;;;13.25;7.78;;;;;;;;;;5014715;28;20032;-84
2022/01/06 02:43:17;;;;;;;13.20;7.45;;;;;;;;;;5033059;28;20029;-85
2022/01/06 02:45:45;;;;;;;16.20;7.60;;;;;;;;;;5030332;28;20021;-86
2022/01/06 02:48:10;;;;;;;12.20;6.72;;;;;;;;;;5032677;28;20056;-85
2022/01/06 02:50:45;;;;;;;10.52;6.65;;;;;;;;;;5015217;28;20057;-83
2022/01/06 02:53:11;;;;;;;12.45;5.95;;;;;;;;;;5015206;28;20032;-83
2022/01/06 02:55:49;;;;;;;23.48;9.60;;;;;;;;;;5032987;28;20049;-83
2022/01/06 02:58:17;;;;;;;22.63;10.77;;;;;;;;;;5030787;28;20037;-82
2022/01/06 03:00:43;;;;;;;14.50;7.60;;;;;;;;;;5015179;28;20033;-82
2022/01/06 03:03:09;;;;;;;17.95;8.82;;;;;;;;;;5032606;28;20025;-82
2022/01/06 03:05:34;;;;;;;12.63;7.40;;;;;;;;;;5032682;28;20385;-84
2022/01/06 03:08:00;;;;;;;10.00;6.63;;;;;;;;;;5032090;28;20030;-83
2022/01/06 03:10:27;;;;;;;12.27;6.15;;;;;;;;;;5032565;28;20022;-82
2022/01/06 03:12:52;;;;;;;12.57;7.30;;;;;;;;;;5032496;28;20118;-82
2022/01/06 03:15:25;;;;;;;17.20;9.65;;;;;;;;;;5014037;28;20103;-82
2022/01/06 03:17:55;;;;;;;12.38;6.25;;;;;;;;;;5032369;28;20059;-81
2022/01/06 03:20:23;;;;;;;14.60;7.20;;;;;;;;;;5014188;28;20028;-82
2022/01/06 03:22:49;;;;;;;8.98;6.25;;;;;;;;;;5029495;28;20065;-82
2022/01/06 03:25:15;;;;;;;14.88;7.78;;;;;;;;;;5032045;28;20029;-83
2022/01/06 03:27:48;;;;;;;11.65;6.18;;;;;;;;;;5032329;28;20079;-84
2022/01/06 03:30:18;;;;;;;12.80;6.63;;;;;;;;;;5031707;28;20033;-83
2022/01/06 03:32:44;;;;;;;14.68;6.78;;;;;;;;;;5012579;28;20043;-82
2022/01/06 03:35:12;;;;;;;14.90;7.90;;;;;;;;;;5013674;28;20377;-83
2022/01/06 03:37:39;;;;;;;11.85;6.75;;;;;;;;;;5011213;28;20029;-82
2022/01/06 03:40:05;;;;;;;14.20;7.00;;;;;;;;;;5031574;28;20022;-84
2022/01/06 03:42:36;;;;;;;11.57;6.00;;;;;;;;;;5032238;28;20091;-84
2022/01/06 03:45:04;;;;;;;13.65;5.75;;;;;;;;;;5030603;28;20117;-82
2022/01/06 03:47:29;;;;;;;10.13;5.40;;;;;;;;;;5031989;28;20060;-82
2022/01/06 03:49:55;;;;;;;8.68;5.53;;;;;;;;;;5014022;28;20465;-82
2022/01/06 03:52:21;;;;;;;11.77;6.22;;;;;;;;;;5032039;28;20029;-86
2022/01/06 03:54:46;;;;;;;13.13;6.65;;;;;;;;;;5030360;28;20029;-84
2022/01/06 03:57:12;;;;;;;10.75;6.55;;;;;;;;;;5014390;28;20034;-84
2022/01/06 03:59:37;;;;;;;8.65;4.05;;;;;;;;;;5031728;28;20036;-85
2022/01/06 04:02:04;;;;;;;11.20;5.85;;;;;;;;;;5031544;28;20519;-83
2022/01/06 04:04:31;;;;;;;11.82;5.75;;;;;;;;;;5031164;28;20087;-83
2022/01/06 04:06:56;;;;;;;10.85;6.97;;;;;;;;;;5014198;28;20112;-85
2022/01/06 04:09:24;;;;;;;12.95;7.80;;;;;;;;;;5013210;28;20538;-83
2022/01/06 04:11:49;;;;;;;14.15;8.20;;;;;;;;;;5013739;28;20048;-84
2022/01/06 04:14:15;;;;;;;14.30;7.78;;;;;;;;;;5031691;28;20454;-83
2022/01/06 04:16:41;;;;;;;14.93;8.70;;;;;;;;;;5031493;28;20025;-84
2022/01/06 04:19:07;;;;;;;18.08;9.27;;;;;;;;;;5013727;28;20029;-84
2022/01/06 04:21:33;;;;;;;23.45;9.23;;;;;;;;;;5013818;28;20038;-84
2022/01/06 04:23:58;;;;;;;20.27;8.48;;;;;;;;;;5031284;28;20052;-82
2022/01/06 04:26:24;;;;;;;17.80;9.18;;;;;;;;;;5013888;28;20032;-83
2022/01/06 04:28:49;;;;;;;13.30;8.63;;;;;;;;;;5031666;28;20036;-84
2022/01/06 04:31:15;;;;;;;17.17;10.02;;;;;;;;;;5013916;28;20489;-83
2022/01/06 04:33:40;;;;;;;19.25;10.13;;;;;;;;;;5014822;28;20119;-85
2022/01/06 04:36:06;;;;;;;17.33;9.05;;;;;;;;;;5034062;28;20080;-84
2022/01/06 04:38:33;;;;;;;16.75;8.27;;;;;;;;;;5017769;28;20025;-83
2022/01/06 04:40:59;;;;;;;15.27;9.15;;;;;;;;;;5035304;28;20104;-83
2022/01/06 04:43:25;;;;;;;13.52;8.65;;;;;;;;;;5017779;28;20120;-83
2022/01/06 04:45:51;;;;;;;12.00;7.63;;;;;;;;;;5035379;28;20037;-82
2022/01/06 04:48:16;;;;;;;14.00;8.27;;;;;;;;;;5035232;28;20040;-82
2022/01/06 04:50:42;;;;;;;15.95;8.10;;;;;;;;;;5017664;28;20036;-86
2022/01/06 04:53:07;;;;;;;17.40;6.85;;;;;;;;;;5017231;28;20469;-84
2022/01/06 04:55:33;;;;;;;10.02;5.90;;;;;;;;;;5013733;28;20034;-85
2022/01/06 04:57:59;;;;;;;14.00;6.20;;;;;;;;;;5030970;28;20045;-84
2022/01/06 05:00:24;;;;;;;16.00;6.70;;;;;;;;;;5031290;28;20041;-85
2022/01/06 05:02:50;;;;;;;15.98;8.35;;;;;;;;;;5014881;28;20029;-85
2022/01/06 05:05:15;;;;;;;13.75;6.75;;;;;;;;;;5032747;28;20143;-85
2022/01/06 05:07:42;;;;;;;13.02;7.18;;;;;;;;;;5017157;28;20079;-84
2022/01/06 05:10:08;;;;;;;15.35;8.32;;;;;;;;;;5034545;28;20025;-85
2022/01/06 05:12:38;;;;;;;12.48;7.03;;;;;;;;;;5016939;28;20040;-84
2022/01/06 05:15:04;;;;;;;10.48;8.00;;;;;;;;;;5029897;28;20017;-84
2022/01/06 05:17:31;;;;;;;20.02;8.90;;;;;;;;;;5032620;28;20473;-84
2022/01/06 05:19:56;;;;;;;15.43;8.40;;;;;;;;;;5016766;28;20358;-82
2022/01/06 05:22:22;;;;;;;15.80;7.80;;;;;;;;;;5034849;28;20056;-85
2022/01/06 05:24:47;;;;;;;12.10;7.78;;;;;;;;;;5034579;28;20061;-84
2022/01/06 05:27:13;;;;;;;12.95;8.40;;;;;;;;;;5016618;28;20488;-83
2022/01/06 05:29:39;;;;;;;15.95;7.93;;;;;;;;;;5035108;28;20021;-86
2022/01/06 05:32:05;;;;;;;17.65;8.82;;;;;;;;;;5034675;28;20048;-85
2022/01/06 05:34:31;;;;;;;17.42;9.45;;;;;;;;;;5034698;28;20037;-84
2022/01/06 05:36:56;;;;;;;18.42;9.60;;;;;;;;;;5016752;28;20113;-84
2022/01/06 05:39:22;;;;;;;24.38;11.18;;;;;;;;;;5036201;28;20963;-84
2022/01/06 05:41:48;;;;;;;17.60;9.15;;;;;;;;;;5016507;28;20055;-84
2022/01/06 05:44:13;;;;;;;16.08;8.75;;;;;;;;;;5029450;28;20504;-84
2022/01/06 05:46:39;;;;;;;15.98;7.70;;;;;;;;;;5015042;28;20032;-84
2022/01/06 05:49:05;;;;;;;16.05;7.35;;;;;;;;;;5019933;28;20600;-84
2022/01/06 05:51:30;;;;;;;16.30;8.18;;;;;;;;;;5020371;28;20036;-83
2022/01/06 05:53:56;;;;;;;14.55;8.60;;;;;;;;;;5027021;28;20481;-83
2022/01/06 05:56:22;;;;;;;19.20;8.75;;;;;;;;;;5014119;28;20159;-84
2022/01/06 05:58:47;;;;;;;11.55;7.65;;;;;;;;;;5033117;28;20148;-84
2022/01/06 06:01:13;;;;;;;15.88;7.97;;;;;;;;;;5033653;28;20504;-83
2022/01/06 06:03:39;;;;;;;14.05;7.93;;;;;;;;;;5015410;28;20029;-85
2022/01/06 06:06:04;;;;;;;15.95;8.48;;;;;;;;;;5011896;28;20060;-84
2022/01/06 06:08:30;;;;;;;15.25;8.65;;;;;;;;;;5033904;28;20029;-84
2022/01/06 06:10:55;;;;;;;15.75;9.07;;;;;;;;;;5017383;28;20022;-84
2022/01/06 06:13:21;;;;;;;14.35;7.53;;;;;;;;;;5015126;28;20545;-83
2022/01/06 06:15:46;;;;;;;16.52;8.13;;;;;;;;;;5030020;28;20045;-85
2022/01/06 06:18:12;;;;;;;11.27;7.20;;;;;;;;;;5033808;28;20056;-81
2022/01/06 06:20:39;;;;;;;12.13;7.03;;;;;;;;;;5033294;28;20017;-85
2022/01/06 06:23:05;;;;;;;11.60;7.63;;;;;;;;;;5015377;28;20056;-85
2022/01/06 06:25:31;;;;;;;13.98;7.55;;;;;;;;;;5014831;28;20120;-81
2022/01/06 06:27:56;;;;;;;14.32;7.68;;;;;;;;;;5013831;28;20108;-81
2022/01/06 06:30:22;;;;;;;11.48;6.10;;;;;;;;;;5014115;28;20041;-82
2022/01/06 06:32:47;;;;;;;12.90;7.07;;;;;;;;;;5034280;28;20037;-82
2022/01/06 06:35:13;;;;;;;11.95;6.82;;;;;;;;;;5033161;28;20061;-83
2022/01/06 06:37:40;;;;;;;12.20;6.20;;;;;;;;;;5033479;28;20138;-81
2022/01/06 06:40:06;;;;;;;11.85;7.53;;;;;;;;;;5014924;28;20112;-83
2022/01/06 06:42:32;;;;;;;11.77;6.75;;;;;;;;;;5029044;28;20036;-80
2022/01/06 06:44:58;;;;;;;17.67;9.23;;;;;;;;;;5033323;28;20465;-83
2022/01/06 06:47:25;;;;;;;12.88;8.05;;;;;;;;;;5015151;28;20040;-81
2022/01/06 06:49:50;;;;;;;13.13;7.30;;;;;;;;;;5033226;28;20450;-82
2022/01/06 06:52:16;;;;;;;14.85;8.52;;;;;;;;;;5032615;28;20029;-83
2022/01/06 06:54:44;;;;;;;13.40;8.00;;;;;;;;;;5032719;28;20032;-81
2022/01/06 06:57:10;;;;;;;11.63;6.55;;;;;;;;;;5030105;28;20031;-83
2022/01/06 06:59:35;;;;;;;10.55;6.70;;;;;;;;;;5033104;28;20448;-82
2022/01/06 07:02:01;;;;;;;14.75;7.95;;;;;;;;;;5032642;28;20033;-81
2022/01/06 07:04:27;;;;;;;15.80;7.53;;;;;;;;;;5032909;28;20037;-83
2022/01/06 07:06:52;;;;;;;12.13;7.07;;;;;;;;;;5032400;28;20033;-82
2022/01/06 07:09:18;;;;;;;13.55;7.72;;;;;;;;;;5013368;28;20061;-80
2022/01/06 07:11:43;;;;;;;11.85;5.95;;;;;;;;;;5032363;28;20021;-82
2022/01/06 07:14:09;;;;;;;13.60;7.18;;;;;;;;;;5032533;28;20029;-82
2022/01/06 07:16:34;;;;;;;7.65;4.35;;;;;;;;;;5032567;28;20056;-83
2022/01/06 07:19:00;;;;;;;6.00;2.97;;;;;;;;;;5032167;28;20029;-81
2022/01/06 07:21:25;;;;;;;6.30;2.35;;;;;;;;;;5012928;28;20051;-83
2022/01/06 07:23:52;;;;;;;6.38;2.90;;;;;;;;;;5033308;28;20052;-82
2022/01/06 07:26:18;;;;;;;7.22;2.78;;;;;;;;;;5031748;28;20385;-81
2022/01/06 07:28:44;;;;;;;4.07;2.35;;;;;;;;;;5031969;28;20029;-82
2022/01/06 07:31:10;;;;;;;3.47;2.53;;;;;;;;;;5031397;28;20465;-81
2022/01/06 07:33:36;;;;;;;5.28;2.47;;;;;;;;;;5014424;28;20037;-81
2022/01/06 07:36:03;;;;;;;5.93;2.45;;;;;;;;;;5032544;28;20025;-80
2022/01/06 07:38:28;;;;;;;6.80;2.50;;;;;;;;;;5031828;28;20041;-82
2022/01/06 07:40:55;;;;;;;12.93;6.40;;;;;;;;;;5029936;28;20412;-83
2022/01/06 07:43:21;;;;;;;8.02;3.30;;;;;;;;;;5013530;28;20039;-84
2022/01/06 07:45:48;;;;;;;16.27;9.77;;;;;;;;;;5027062;28;20087;-81
2022/01/06 07:48:18;;;;;;;5.03;3.30;;;;;;;;;;5027147;28;20112;-82
2022/01/06 07:50:45;;;;;;;;;;;;;;;;;;5028466;28;20030;-82
2022/01/06 07:53:11;;;;;;;10.00;5.32;;;;;;;;;;5028429;28;19936;-82
2022/01/06 07:55:36;;;;;;;6.63;2.50;;;;;;;;;;5030213;28;20041;-82
2022/01/06 07:58:03;;;;;;;3.83;2.38;;;;;;;;;;5030265;28;20111;-80
2022/01/06 08:00:28;;;;;;;14.23;6.65;;;;;;;;;;5030787;28;20140;-82
2022/01/06 08:02:55;;;;;;;17.60;8.27;;;;;;;;;;5031953;28;20513;-83
2022/01/06 08:05:24;;;;;;;14.00;8.48;;;;;;;;;;5029679;28;20028;-82
2022/01/06 08:07:49;;;;;;;17.52;9.60;;;;;;;;;;5027188;28;20029;-82
2022/01/06 08:10:15;;;;;;;15.95;8.68;;;;;;;;;;5027273;28;20488;-81
2022/01/06 08:12:41;;;;;;;5.70;3.90;;;;;;;;;;5011600;28;20096;-82
2022/01/06 08:15:07;;;;;;;5.18;2.20;;;;;;;;;;5023256;28;20034;-82
2022/01/06 08:17:34;;;;;;;12.50;2.58;;;;;;;;;;5026830;28;20433;-82
2022/01/06 08:19:59;;;;;;;4.15;2.30;;;;;;;;;;5025532;28;20079;-82
2022/01/06 08:22:25;;;;;;;5.55;2.85;;;;;;;;;;5027650;28;20053;-80
2022/01/06 08:24:52;;;;;;;4.10;2.10;;;;;;;;;;5012329;28;20018;-82
2022/01/06 08:27:18;;;;;;;4.38;2.60;;;;;;;;;;5029832;28;20029;-81
2022/01/06 08:29:44;;;;;;;5.15;2.03;;;;;;;;;;5025558;28;20039;-81
2022/01/06 08:32:10;;;;;;;5.05;2.35;;;;;;;;;;5014591;28;20037;-81
2022/01/06 08:34:35;;;;;;;5.07;2.60;;;;;;;;;;5031637;28;20105;-83
2022/01/06 08:37:01;;;;;;;15.75;8.77;;;;;;;;;;5031013;28;20018;-83
2022/01/06 08:39:27;;;;;;;9.13;4.90;;;;;;;;;;5030745;28;20033;-83
2022/01/06 08:41:53;;;;;;;6.32;3.58;;;;;;;;;;5012807;28;20031;-84
2022/01/06 08:44:20;;;;;;;6.65;2.50;;;;;;;;;;5028937;28;20029;-83
2022/01/06 08:46:47;;;;;;;5.00;2.67;;;;;;;;;;5009945;28;20386;-84
2022/01/06 08:49:17;;;;;;;9.35;4.03;;;;;;;;;;5026413;28;20086;-85
2022/01/06 08:51:43;;;;;;;6.18;2.60;;;;;;;;;;5026552;28;20018;-82
2022/01/06 08:54:08;;;;;;;4.82;2.67;;;;;;;;;;5027005;28;20034;-82
2022/01/06 08:56:35;;;;;;;3.75;2.00;;;;;;;;;;5028437;28;20029;-81
2022/01/06 08:59:01;;;;;;;5.43;2.17;;;;;;;;;;5027648;28;20412;-82
2022/01/06 09:01:27;;;;;;;4.53;2.22;;;;;;;;;;5028351;28;20033;-81
2022/01/06 09:03:53;;;;;;;5.05;2.72;;;;;;;;;;5028236;28;20385;-80
2022/01/06 09:06:20;;;;;;;10.30;4.25;;;;;;;;;;5026564;28;20033;-83
2022/01/06 09:08:46;;;;;;;3.80;2.20;;;;;;;;;;5028249;28;20025;-84
2022/01/06 09:11:12;;;;;;;4.00;1.95;;;;;;;;;;5029692;28;20515;-82
2022/01/06 09:13:37;;;;;;;4.93;2.50;;;;;;;;;;5028442;28;20075;-81
2022/01/06 09:16:03;;;;;;;5.05;2.83;;;;;;;;;;5032015;28;20025;-83
2022/01/06 09:18:29;;;;;;;6.35;2.47;;;;;;;;;;5029711;28;20029;-82
2022/01/06 09:20:55;;;;;;;4.68;2.42;;;;;;;;;;5029828;28;20033;-80
2022/01/06 09:23:21;;;;;;;7.03;3.08;;;;;;;;;;5034326;28;20382;-83
2022/01/06 09:25:46;;;;;;;6.25;2.60;;;;;;;;;;5033135;28;20032;-81
2022/01/06 09:28:12;;;;;;;9.18;3.35;;;;;;;;;;5031519;28;20025;-81
2022/01/06 09:30:39;;;;;;;10.55;2.30;;;;;;;;;;5031405;28;20026;-83
2022/01/06 09:33:04;;;;;;;6.03;2.60;;;;;;;;;;5031648;28;20025;-82
2022/01/06 09:35:30;;;;;;;8.27;3.80;;;;;;;;;;5025932;28;20408;-81
2022/01/06 09:37:55;;;;;;;6.03;2.22;;;;;;;;;;5031154;28;20075;-82
2022/01/06 09:40:21;;;;;;;5.28;3.22;;;;;;;;;;5031429;28;20025;-83
2022/01/06 09:42:46;;;;;;;5.38;2.20;;;;;;;;;;5029547;28;20101;-81
2022/01/06 09:45:12;;;;;;;5.07;2.38;;;;;;;;;;5033298;28;20030;-80
2022/01/06 09:47:39;;;;;;;4.18;2.28;;;;;;;;;;5011292;28;20616;-82
2022/01/06 09:50:06;;;;;;;4.18;2.47;;;;;;;;;;5034445;28;20080;-82
2022/01/06 09:52:33;;;;;;;5.45;2.17;;;;;;;;;;5009528;28;20112;-82
2022/01/06 09:54:59;;;;;;;3.45;2.25;;;;;;;;;;5030162;28;20026;-82
2022/01/06 09:57:28;;;;;;;5.50;2.65;;;;;;;;;;5017484;28;20386;-82
2022/01/06 09:59:54;;;;;;;8.02;3.15;;;;;;;;;;5029293;28;20049;-80
2022/01/06 10:02:19;;;;;;;5.75;2.40;;;;;;;;;;5021510;28;20056;-81
2022/01/06 10:04:47;;;;;;;5.93;2.78;;;;;;;;;;5031797;28;20021;-82
2022/01/06 10:07:15;;;;;;;3.95;2.33;;;;;;;;;;5014369;28;20029;-81
2022/01/06 10:09:41;;;;;;;6.13;3.13;;;;;;;;;;5033526;28;20029;-80
2022/01/06 10:12:11;;;;;;;5.47;2.95;;;;;;;;;;5015553;28;20033;-80
2022/01/06 10:14:44;;;;;;;7.00;2.90;;;;;;;;;;5032691;28;20121;-84
2022/01/06 10:17:28;;;;;;;6.15;3.00;;;;;;;;;;5015220;28;20033;-86
2022/01/06 10:20:07;;;;;;;5.93;2.65;;;;;;;;;;5013050;28;20422;-86
2022/01/06 10:22:43;;;;;;;7.37;2.20;;;;;;;;;;5015559;28;20049;-81
2022/01/06 10:25:10;;;;;;;7.97;2.63;;;;;;;;;;5029828;28;20038;-83
2022/01/06 10:27:37;;;;;;;7.07;2.85;;;;;;;;;;5029567;28;20497;-82
2022/01/06 10:30:05;;;;;;;7.28;2.65;;;;;;;;;;5014844;28;20382;-81
2022/01/06 10:32:32;;;;;;;6.53;2.65;;;;;;;;;;5012958;28;20129;-82
2022/01/06 10:35:02;;;;;;;6.22;2.58;;;;;;;;;;5029323;28;20033;-83
2022/01/06 10:37:54;;;;;;;4.13;2.50;;;;;;;;;;5030400;28;20022;-81
2022/01/06 10:40:22;;;;;;;7.28;2.55;;;;;;;;;;5029875;28;20485;-82
2022/01/06 10:42:50;;;;;;;5.03;2.42;;;;;;;;;;5033048;28;20061;-81
2022/01/06 10:45:24;;;;;;;7.15;2.47;;;;;;;;;;5033625;28;20120;-81
2022/01/06 10:47:53;;;;;;;4.80;2.55;;;;;;;;;;5014471;28;20025;-81
2022/01/06 10:50:21;;;;;;;5.30;2.47;;;;;;;;;;5031100;28;20024;-83
2022/01/06 10:52:49;;;;;;;7.55;2.42;;;;;;;;;;5032589;28;20492;-80
2022/01/06 10:55:19;;;;;;;4.15;2.50;;;;;;;;;;5033520;28;20075;-82
2022/01/06 10:57:57;;;;;;;5.78;2.80;;;;;;;;;;5015882;28;20091;-81
2022/01/06 11:00:29;;;;;;;4.70;2.55;;;;;;;;;;5032528;28;20083;-80
2022/01/06 11:03:15;;;;;;;10.15;3.45;;;;;;;;;;5031402;28;20032;-81
2022/01/06 11:05:43;;;;;;;6.28;2.58;;;;;;;;;;5031377;28;20037;-82
2022/01/06 11:08:10;;;;;;;7.00;2.38;;;;;;;;;;5014688;28;20540;-83
2022/01/06 11:10:45;;;;;;;6.70;2.65;;;;;;;;;;5031515;28;20032;-85
2022/01/06 11:13:11;;;;;;;5.45;2.47;;;;;;;;;;5031267;28;20108;-83
2022/01/06 11:15:36;;;;;;;5.32;2.47;;;;;;;;;;5031144;28;20108;-81
2022/01/06 11:18:04;;;;;;;5.53;2.13;;;;;;;;;;5032400;28;20033;-83
2022/01/06 11:20:31;;;;;;;4.63;2.55;;;;;;;;;;5031610;28;20029;-82
2022/01/06 11:22:58;;;;;;;4.97;2.65;;;;;;;;;;5032219;28;20091;-82
2022/01/06 11:25:39;;;;;;;7.65;3.25;;;;;;;;;;5031687;28;20034;-82
2022/01/06 11:28:13;;;;;;;4.72;2.40;;;;;;;;;;5031248;28;20029;-83
2022/01/06 11:30:39;;;;;;;7.35;2.50;;;;;;;;;;5027069;28;20492;-83
2022/01/06 11:33:05;;;;;;;6.47;2.78;;;;;;;;;;5032128;28;20075;-81
2022/01/06 11:35:55;;;;;;;8.43;2.65;;;;;;;;;;5032239;28;20029;-84
2022/01/06 11:38:26;;;;;;;5.97;3.05;;;;;;;;;;5014434;28;20057;-84
2022/01/06 11:41:08;;;;;;;6.63;2.88;;;;;;;;;;5032597;28;20033;-83
2022/01/06 11:43:36;;;;;;;8.35;2.70;;;;;;;;;;5008313;28;20111;-81
2022/01/06 11:46:02;;;;;;;4.50;2.33;;;;;;;;;;5032008;28;20453;-82
2022/01/06 11:48:28;;;;;;;5.85;2.45;;;;;;;;;;5031656;28;20033;-80
2022/01/06 11:50:54;;;;;;;7.10;2.90;;;;;;;;;;5029435;28;20033;-82
2022/01/06 11:53:33;;;;;;;3.90;2.35;;;;;;;;;;5013950;28;20362;-81
2022/01/06 11:55:59;;;;;;;7.13;2.63;;;;;;;;;;5031729;28;20017;-82
2022/01/06 11:58:25;;;;;;;5.65;2.67;;;;;;;;;;5031451;28;20029;-82
2022/01/06 12:01:14;;;;;;;8.18;3.83;;;;;;;;;;5031764;28;20040;-82
2022/01/06 12:03:42;;;;;;;9.90;3.40;;;;;;;;;;5022176;28;20041;-81
2022/01/06 12:06:10;;;;;;;9.68;3.22;;;;;;;;;;5031354;28;20385;-82
2022/01/06 12:08:41;;;;;;;5.55;2.63;;;;;;;;;;5014063;28;20021;-83
2022/01/06 12:11:18;;;;;;;9.98;2.40;;;;;;;;;;5032111;28;20052;-81
2022/01/06 12:13:46;;;;;;;5.32;2.55;;;;;;;;;;5031394;28;20087;-80
2022/01/06 12:16:12;;;;;;;3.95;2.00;;;;;;;;;;5013087;28;20083;-81
2022/01/06 12:18:38;;;;;;;6.60;2.70;;;;;;;;;;5030960;28;20037;-81
2022/01/06 12:21:03;;;;;;;7.53;2.95;;;;;;;;;;5031487;28;20056;-82
2022/01/06 12:23:29;;;;;;;6.25;2.65;;;;;;;;;;5031129;28;20053;-80
2022/01/06 12:25:55;;;;;;;4.43;2.45;;;;;;;;;;5031167;28;20041;-82
2022/01/06 12:28:21;;;;;;;7.45;2.72;;;;;;;;;;5031390;28;20025;-81
2022/01/06 12:30:47;;;;;;;9.10;5.05;;;;;;;;;;5031230;28;20508;-82
2022/01/06 12:33:14;;;;;;;5.88;3.60;;;;;;;;;;5031184;28;20033;-82
2022/01/06 12:35:49;;;;;;;4.97;2.00;;;;;;;;;;5013390;28;20025;-82
2022/01/06 12:38:24;;;;;;;5.03;2.42;;;;;;;;;;5031374;28;20021;-82
2022/01/06 12:40:50;;;;;;;6.65;2.47;;;;;;;;;;5031883;28;20040;-83
2022/01/06 12:43:19;;;;;;;5.30;2.30;;;;;;;;;;5031078;28;20357;-82
2022/01/06 12:45:45;;;;;;;6.97;2.70;;;;;;;;;;5031113;28;20022;-85
2022/01/06 12:48:11;;;;;;;5.28;2.55;;;;;;;;;;5031043;28;20029;-82
2022/01/06 12:50:43;;;;;;;4.47;2.17;;;;;;;;;;5031382;28;20069;-82
2022/01/06 12:53:08;;;;;;;4.95;2.45;;;;;;;;;;5031444;28;20108;-81
2022/01/06 12:55:41;;;;;;;12.57;6.72;;;;;;;;;;5033172;28;20148;-81
2022/01/06 12:58:07;;;;;;;8.77;4.03;;;;;;;;;;5034758;28;20516;-83
2022/01/06 13:00:32;;;;;;;10.65;4.57;;;;;;;;;;5035063;28;20033;-83
2022/01/06 13:03:01;;;;;;;8.55;3.17;;;;;;;;;;5014291;28;20030;-84
2022/01/06 13:05:27;;;;;;;5.85;2.50;;;;;;;;;;5034901;28;20170;-81
2022/01/06 13:08:04;;;;;;;6.32;3.00;;;;;;;;;;5034918;28;20701;-83
2022/01/06 13:10:30;;;;;;;16.55;3.30;;;;;;;;;;5034118;28;20036;-81
2022/01/06 13:13:05;;;;;;;4.72;2.50;;;;;;;;;;5015731;28;20033;-83
2022/01/06 13:15:34;;;;;;;10.50;4.70;;;;;;;;;;5016359;28;20037;-82
2022/01/06 13:18:01;;;;;;;8.20;3.50;;;;;;;;;;5034653;28;20029;-84
2022/01/06 13:20:27;;;;;;;5.53;3.10;;;;;;;;;;5034856;28;20137;-80
2022/01/06 13:25:29;;;;;;;12.70;3.50;;;;;;;;;;5034176;28;20038;-82
2022/01/06 13:28:01;;;;;;;8.30;2.60;;;;;;;;;;5034683;28;20095;-82
2022/01/06 13:30:47;;;;;;;3.40;2.10;;;;;;;;;;5033821;28;20606;-83
2022/01/06 13:33:21;;;;;;;7.45;3.03;;;;;;;;;;5013740;28;20033;-80
2022/01/06 13:35:52;;;;;;;31.63;9.57;;;;;;;;;;5034376;28;20025;-81
2022/01/06 13:38:19;;;;;;;9.85;3.55;;;;;;;;;;5034171;28;20071;-84
2022/01/06 13:40:50;;;;;;;8.77;3.42;;;;;;;;;;5016433;28;20481;-82
2022/01/06 13:43:23;;;;;;;8.10;3.22;;;;;;;;;;5034097;28;20028;-83
2022/01/06 13:45:51;;;;;;;4.03;2.25;;;;;;;;;;5009271;28;20032;-82
2022/01/06 13:51:08;;;;;;;7.90;2.53;;;;;;;;;;5031988;28;20056;-83
2022/01/06 13:53:36;;;;;;;6.65;3.40;;;;;;;;;;5033617;28;20029;-81
2022/01/06 13:56:07;;;;;;;8.27;2.58;;;;;;;;;;5032007;28;20021;-82
2022/01/06 13:58:41;;;;;;;10.88;5.88;;;;;;;;;;5015984;28;20366;-91
2022/01/06 14:01:11;;;;;;;8.25;4.05;;;;;;;;;;5014951;28;20041;-89
2022/01/06 14:03:36;;;;;;;13.70;7.78;;;;;;;;;;5022696;28;20030;-87
2022/01/06 14:06:05;;;;;;;14.73;6.30;;;;;;;;;;5011741;28;20045;-80
2022/01/06 14:08:30;;;;;;;10.85;4.40;;;;;;;;;;5015208;28;20025;-82
2022/01/06 14:10:57;;;;;;;6.95;3.47;;;;;;;;;;5032509;28;20465;-79
2022/01/06 14:13:23;;;;;;;9.82;3.10;;;;;;;;;;5028494;28;20039;-82
2022/01/06 14:15:48;;;;;;;8.30;3.78;;;;;;;;;;5031908;28;20021;-82
2022/01/06 14:18:14;;;;;;;7.20;3.50;;;;;;;;;;5014575;28;20507;-83
2022/01/06 14:20:41;;;;;;;10.50;4.68;;;;;;;;;;5012212;28;20026;-82
2022/01/06 14:23:06;;;;;;;6.80;4.22;;;;;;;;;;5029534;28;20103;-84
2022/01/06 14:25:32;;;;;;;10.20;5.07;;;;;;;;;;5028188;28;20417;-83
2022/01/06 14:27:58;;;;;;;9.98;5.47;;;;;;;;;;5032906;28;20033;-83
2022/01/06 14:30:24;;;;;;;13.70;5.25;;;;;;;;;;5032080;28;20024;-82
2022/01/06 14:32:51;;;;;;;7.53;3.03;;;;;;;;;;5030862;28;20029;-84
2022/01/06 14:35:17;;;;;;;7.22;3.38;;;;;;;;;;5033123;28;20474;-82
2022/01/06 14:37:42;;;;;;;4.82;2.15;;;;;;;;;;5033199;28;20121;-84
2022/01/06 14:40:09;;;;;;;13.38;2.88;;;;;;;;;;5028406;28;20033;-84
2022/01/06 14:42:35;;;;;;;6.50;2.67;;;;;;;;;;5033178;28;20083;-83
2022/01/06 14:45:04;;;;;;;4.53;2.45;;;;;;;;;;5032965;28;20460;-83
2022/01/06 14:47:29;;;;;;;5.67;2.77;;;;;;;;;;5031869;28;20475;-84
2022/01/06 14:49:55;;;;;;;8.57;3.00;;;;;;;;;;5032498;28;20090;-83